createdAt,value
2019-06-01T00:01:29.934Z,0.00
2019-06-01T00:06:29.730Z,0.00
2019-06-01T00:11:29.834Z,0.00
2019-06-01T00:16:29.688Z,0.00
2019-06-01T00:21:29.587Z,0.00
2019-06-01T00:26:29.452Z,0.00
2019-06-01T00:31:29.457Z,0.00
2019-06-01T00:36:29.318Z,0.00
2019-06-01T00:41:29.359Z,0.00
2019-06-01T00:46:29.198Z,0.00
2019-06-01T00:51:29.260Z,0.00
2019-06-01T00:56:29.347Z,0.00
2019-06-01T01:01:29.256Z,0.00
2019-06-01T01:06:30.266Z,0.00
2019-06-01T01:11:29.470Z,0.00
2019-06-01T01:16:28.937Z,0.00
2019-06-01T01:21:28.947Z,0.00
2019-06-01T01:26:28.935Z,0.00
2019-06-01T01:31:28.732Z,0.00
2019-06-01T01:36:28.683Z,0.00
2019-06-01T01:41:28.604Z,0.00
2019-06-01T01:46:28.663Z,0.00
2019-06-01T01:51:28.479Z,0.00
2019-06-01T01:56:28.691Z,0.00
2019-06-01T02:01:28.531Z,0.00
2019-06-01T02:06:29.279Z,0.00
2019-06-01T02:11:28.383Z,0.00
2019-06-01T02:16:28.274Z,0.00
2019-06-01T02:21:28.223Z,0.00
2019-06-01T02:26:28.171Z,0.00
2019-06-01T02:31:40.984Z,0.00
2019-06-01T02:36:29.025Z,0.00
2019-06-01T02:41:27.956Z,0.00
2019-06-01T02:46:27.920Z,0.00
2019-06-01T02:51:27.990Z,0.00
2019-06-01T02:56:27.905Z,0.00
2019-06-01T03:01:27.861Z,0.00
2019-06-01T03:06:27.789Z,0.00
2019-06-01T03:11:27.991Z,0.00
2019-06-01T03:16:27.793Z,5.62
2019-06-01T03:21:27.497Z,5.62
2019-06-01T03:26:27.443Z,11.25
2019-06-01T03:31:27.411Z,16.88
2019-06-01T03:36:27.363Z,22.50
2019-06-01T03:41:27.275Z,33.75
2019-06-01T03:46:27.302Z,39.38
2019-06-01T03:51:29.327Z,56.25
2019-06-01T03:56:27.264Z,61.88
2019-06-01T04:01:27.202Z,78.75
2019-06-01T04:06:27.014Z,95.62
2019-06-01T04:11:27.032Z,106.88
2019-06-01T04:16:27.101Z,129.38
2019-06-01T04:21:26.838Z,140.62
2019-06-01T04:26:26.784Z,146.25
2019-06-01T04:31:26.958Z,163.12
2019-06-01T04:36:26.858Z,174.38
2019-06-01T04:41:26.727Z,185.62
2019-06-01T04:46:26.641Z,219.38
2019-06-01T04:51:29.868Z,247.50
2019-06-01T04:56:26.529Z,331.88
2019-06-01T05:01:26.398Z,360.00
2019-06-01T05:06:26.393Z,348.75
2019-06-01T05:11:26.294Z,382.50
2019-06-01T05:16:26.347Z,365.62
2019-06-01T05:21:26.299Z,393.75
2019-06-01T05:26:26.305Z,455.62
2019-06-01T05:31:26.194Z,669.38
2019-06-01T05:36:28.217Z,675.00
2019-06-01T05:41:26.079Z,720.00
2019-06-01T05:46:27.094Z,793.12
2019-06-01T05:51:25.960Z,855.00
2019-06-01T05:56:25.965Z,618.75
2019-06-01T06:01:25.780Z,860.62
2019-06-01T06:06:25.731Z,860.62
2019-06-01T06:11:25.664Z,916.88
2019-06-01T06:16:25.736Z,1074.38
2019-06-01T06:21:25.802Z,1096.88
2019-06-01T06:26:26.600Z,1158.75
2019-06-01T06:31:25.619Z,1209.38
2019-06-01T06:36:25.675Z,1271.25
2019-06-01T06:41:25.410Z,1243.12
2019-06-01T06:46:25.464Z,1293.75
2019-06-01T06:51:25.598Z,1389.38
2019-06-01T06:56:26.180Z,1333.12
2019-06-01T07:01:25.326Z,1389.38
2019-06-01T07:06:25.703Z,1456.88
2019-06-01T07:11:25.433Z,1575.00
2019-06-01T07:16:28.207Z,1631.25
2019-06-01T07:21:25.863Z,1676.25
2019-06-01T07:26:26.117Z,1698.75
2019-06-01T07:31:26.188Z,1614.38
2019-06-01T07:36:24.904Z,1816.88
2019-06-01T07:41:24.924Z,1563.75
2019-06-01T07:46:24.923Z,1648.12
2019-06-01T07:51:25.501Z,1743.75
2019-06-01T07:56:24.798Z,1771.88
2019-06-01T08:01:25.811Z,1985.62
2019-06-01T08:06:28.792Z,2137.50
2019-06-01T08:11:30.107Z,1963.12
2019-06-01T08:16:25.877Z,2075.62
2019-06-01T08:21:24.488Z,2126.25
2019-06-01T08:26:24.480Z,2345.62
2019-06-01T08:31:24.561Z,2401.88
2019-06-01T08:36:25.226Z,1288.12
2019-06-01T08:41:25.501Z,2351.25
2019-06-01T08:46:25.457Z,2458.12
2019-06-01T08:51:24.266Z,2385.00
2019-06-01T08:56:24.295Z,2244.38
2019-06-01T09:01:24.495Z,2075.62
2019-06-01T09:06:24.832Z,1636.88
2019-06-01T09:11:25.061Z,2463.75
2019-06-01T09:16:25.378Z,2047.50
2019-06-01T09:21:25.273Z,1063.12
2019-06-01T09:26:24.069Z,2475.00
2019-06-01T09:31:24.012Z,2306.25
2019-06-01T09:36:23.909Z,2401.88
2019-06-01T09:41:23.849Z,2565.00
2019-06-01T09:46:23.802Z,2733.75
2019-06-01T09:51:23.831Z,2767.50
2019-06-01T09:56:29.045Z,2655.00
2019-06-01T10:01:25.294Z,2536.88
2019-06-01T10:06:23.590Z,2401.88
2019-06-01T10:11:23.735Z,2559.38
2019-06-01T10:16:24.762Z,2683.12
2019-06-01T10:21:23.589Z,2300.62
2019-06-01T10:26:23.462Z,2700.00
2019-06-01T10:31:23.387Z,1057.50
2019-06-01T10:36:23.422Z,2896.88
2019-06-01T10:41:23.311Z,2784.38
2019-06-01T10:46:23.279Z,2902.50
2019-06-01T10:51:23.217Z,3009.38
2019-06-01T10:56:25.198Z,3099.38
2019-06-01T11:01:23.139Z,3015.00
2019-06-01T11:06:36.598Z,2885.62
2019-06-01T11:11:24.053Z,3071.25
2019-06-01T11:16:23.058Z,2981.25
2019-06-01T11:21:23.068Z,3155.62
2019-06-01T11:26:22.941Z,3121.88
2019-06-01T11:31:26.166Z,2913.75
2019-06-01T11:36:22.871Z,3003.75
2019-06-01T11:41:23.117Z,3037.50
2019-06-01T11:46:22.821Z,2919.38
2019-06-01T11:51:22.794Z,3026.25
2019-06-01T11:56:22.713Z,3048.75
2019-06-01T12:01:22.785Z,3009.38
2019-06-01T12:06:22.704Z,2829.38
2019-06-01T12:11:22.784Z,2930.62
2019-06-01T12:16:22.772Z,3099.38
2019-06-01T12:21:22.613Z,3060.00
2019-06-01T12:26:22.663Z,2823.75
2019-06-01T12:31:22.613Z,2801.25
2019-06-01T12:36:22.474Z,2902.50
2019-06-01T12:41:22.771Z,3088.12
2019-06-01T12:46:22.388Z,2936.25
2019-06-01T12:51:22.328Z,2986.88
2019-06-01T12:56:22.424Z,2739.38
2019-06-01T13:01:22.252Z,2514.38
2019-06-01T13:06:22.209Z,2570.62
2019-06-01T13:11:22.211Z,2643.75
2019-06-01T13:16:22.219Z,2677.50
2019-06-01T13:21:22.170Z,2604.38
2019-06-01T13:26:22.251Z,2548.12
2019-06-01T13:31:22.014Z,2722.50
2019-06-01T13:36:22.209Z,2750.62
2019-06-01T13:41:22.006Z,2598.75
2019-06-01T13:46:21.931Z,2677.50
2019-06-01T13:51:21.859Z,2536.88
2019-06-01T13:56:21.828Z,2497.50
2019-06-01T14:01:21.814Z,2289.38
2019-06-01T14:06:21.841Z,2193.75
2019-06-01T14:11:21.820Z,2250.00
2019-06-01T14:16:21.723Z,2244.38
2019-06-01T14:21:22.011Z,2227.50
2019-06-01T14:26:21.694Z,2109.38
2019-06-01T14:31:21.610Z,1940.62
2019-06-01T14:36:21.556Z,2070.00
2019-06-01T14:41:21.602Z,2103.75
2019-06-01T14:46:21.464Z,2210.62
2019-06-01T14:51:21.453Z,2075.62
2019-06-01T14:56:21.382Z,1974.38
2019-06-01T15:01:32.105Z,1974.38
2019-06-01T15:06:22.360Z,1850.62
2019-06-01T15:11:21.261Z,1856.25
2019-06-01T15:16:21.200Z,1906.88
2019-06-01T15:21:21.216Z,1816.88
2019-06-01T15:26:21.240Z,1670.62
2019-06-01T15:31:21.466Z,1676.25
2019-06-01T15:36:21.074Z,1687.50
2019-06-01T15:41:21.057Z,1569.38
2019-06-01T15:46:21.116Z,1653.75
2019-06-01T15:51:21.046Z,1530.00
2019-06-01T15:56:23.612Z,1428.75
2019-06-01T16:01:26.364Z,1350.00
2019-06-01T16:06:20.838Z,1372.50
2019-06-01T16:11:20.879Z,1316.25
2019-06-01T16:16:20.777Z,1209.38
2019-06-01T16:21:20.769Z,1226.25
2019-06-01T16:26:20.824Z,1153.12
2019-06-01T16:31:20.771Z,1085.62
2019-06-01T16:36:20.609Z,984.38
2019-06-01T16:41:20.541Z,978.75
2019-06-01T16:46:20.505Z,1158.75
2019-06-01T16:51:20.450Z,517.50
2019-06-01T16:56:20.413Z,466.88
2019-06-01T17:01:22.685Z,433.12
2019-06-01T17:06:20.535Z,410.62
2019-06-01T17:11:20.396Z,405.00
2019-06-01T17:16:20.318Z,388.12
2019-06-01T17:21:20.187Z,360.00
2019-06-01T17:26:20.249Z,382.50
2019-06-01T17:31:20.160Z,388.12
2019-06-01T17:36:20.040Z,376.88
2019-06-01T17:41:20.018Z,410.62
2019-06-01T17:46:22.646Z,438.75
2019-06-01T17:51:19.980Z,421.88
2019-06-01T17:56:19.927Z,354.38
2019-06-01T18:01:19.842Z,326.25
2019-06-01T18:06:19.804Z,286.88
2019-06-01T18:11:19.734Z,213.75
2019-06-01T18:16:19.680Z,191.25
2019-06-01T18:21:19.615Z,185.62
2019-06-01T18:26:19.637Z,168.75
2019-06-01T18:31:19.594Z,146.25
2019-06-01T18:36:20.469Z,123.75
2019-06-01T18:41:20.157Z,112.50
2019-06-01T18:46:19.415Z,101.25
2019-06-01T18:51:19.310Z,90.00
2019-06-01T18:56:19.343Z,84.38
2019-06-01T19:01:20.980Z,73.12
2019-06-01T19:06:19.158Z,67.50
2019-06-01T19:11:32.620Z,61.88
2019-06-01T19:16:20.017Z,50.62
2019-06-01T19:21:19.004Z,39.38
2019-06-01T19:26:18.919Z,33.75
2019-06-01T19:31:18.856Z,22.50
2019-06-01T19:36:18.799Z,16.88
2019-06-01T19:41:18.758Z,11.25
2019-06-01T19:46:18.690Z,5.62
2019-06-01T19:51:18.849Z,5.62
2019-06-01T19:56:20.489Z,0.00
2019-06-01T20:01:18.572Z,0.00
2019-06-01T20:06:18.946Z,0.00
2019-06-01T20:11:19.346Z,0.00
2019-06-01T20:16:20.244Z,0.00
2019-06-01T20:21:18.811Z,0.00
2019-06-01T20:26:19.399Z,0.00
2019-06-01T20:31:18.251Z,0.00
2019-06-01T20:36:18.199Z,0.00
2019-06-01T20:41:18.646Z,0.00
2019-06-01T20:46:18.827Z,0.00
2019-06-01T20:51:18.825Z,0.00
2019-06-01T20:56:19.353Z,0.00
2019-06-01T21:01:17.948Z,0.00
2019-06-01T21:06:18.716Z,0.00
2019-06-01T21:11:17.942Z,0.00
2019-06-01T21:16:18.084Z,0.00
2019-06-01T21:21:18.298Z,0.00
2019-06-01T21:26:18.938Z,0.00
2019-06-01T21:31:17.557Z,0.00
2019-06-01T21:36:17.521Z,0.00
2019-06-01T21:41:17.553Z,0.00
2019-06-01T21:46:17.602Z,0.00
2019-06-01T21:51:17.743Z,0.00
2019-06-01T21:56:20.128Z,0.00
2019-06-01T22:01:18.382Z,0.00
2019-06-01T22:06:17.277Z,0.00
2019-06-01T22:11:17.354Z,0.00
2019-06-01T22:16:17.508Z,0.00
2019-06-01T22:21:17.637Z,0.00
2019-06-01T22:26:17.882Z,0.00
2019-06-01T22:31:18.166Z,0.00
2019-06-01T22:36:16.989Z,0.00
2019-06-01T22:41:16.980Z,0.00
2019-06-01T22:46:16.798Z,0.00
2019-06-01T22:51:16.690Z,0.00
2019-06-01T22:56:16.633Z,0.00
2019-06-01T23:01:16.567Z,0.00
2019-06-01T23:06:16.519Z,0.00
2019-06-01T23:11:16.498Z,0.00
2019-06-01T23:16:16.437Z,0.00
2019-06-01T23:21:16.484Z,0.00
2019-06-01T23:26:16.391Z,0.00
2019-06-01T23:31:16.340Z,0.00
2019-06-01T23:36:16.262Z,0.00
2019-06-01T23:41:16.206Z,0.00
2019-06-01T23:46:16.146Z,0.00
2019-06-01T23:51:16.084Z,0.00
2019-06-01T23:56:16.079Z,0.00
